createdAt,value
2023-03-14T00:00:03.690Z,545.00
2023-03-14T00:01:03.649Z,544.00
2023-03-14T00:02:03.620Z,544.00
2023-03-14T00:03:03.619Z,547.00
2023-03-14T00:04:03.573Z,548.00
2023-03-14T00:05:03.576Z,551.00
2023-03-14T00:06:03.513Z,550.00
2023-03-14T00:07:03.494Z,548.00
2023-03-14T00:08:03.477Z,546.00
2023-03-14T00:09:03.452Z,548.00
2023-03-14T00:10:03.429Z,548.00
2023-03-14T00:11:03.399Z,549.00
2023-03-14T00:12:03.389Z,549.00
2023-03-14T00:13:03.360Z,549.00
2023-03-14T00:14:03.326Z,550.00
2023-03-14T00:15:03.308Z,552.00
2023-03-14T00:16:03.370Z,552.00
2023-03-14T00:17:03.244Z,551.00
2023-03-14T00:18:03.223Z,549.00
2023-03-14T00:19:03.203Z,548.00
2023-03-14T00:20:03.175Z,547.00
2023-03-14T00:21:03.160Z,546.00
2023-03-14T00:22:03.128Z,545.00
2023-03-14T00:23:03.110Z,546.00
2023-03-14T00:24:03.096Z,546.00
2023-03-14T00:25:03.073Z,544.00
2023-03-14T00:26:03.049Z,544.00
2023-03-14T00:27:03.034Z,542.00
2023-03-14T00:28:02.996Z,542.00
2023-03-14T00:29:03.013Z,544.00
2023-03-14T00:30:02.974Z,544.00
2023-03-14T00:31:03.019Z,544.00
2023-03-14T00:32:02.943Z,545.00
2023-03-14T00:33:02.944Z,545.00
2023-03-14T00:34:02.905Z,544.00
2023-03-14T00:35:02.900Z,545.00
2023-03-14T00:36:02.959Z,546.00
2023-03-14T00:37:02.847Z,545.00
2023-03-14T00:38:02.816Z,544.00
2023-03-14T00:39:02.824Z,542.00
2023-03-14T00:40:02.788Z,544.00
2023-03-14T00:41:02.796Z,548.00
2023-03-14T00:42:02.730Z,547.00
2023-03-14T00:43:02.761Z,546.00
2023-03-14T00:44:02.724Z,543.00
2023-03-14T00:45:02.687Z,543.00
2023-03-14T00:46:02.669Z,542.00
2023-03-14T00:47:02.666Z,541.00
2023-03-14T00:48:02.624Z,540.00
2023-03-14T00:49:02.596Z,542.00
2023-03-14T00:50:02.589Z,543.00
2023-03-14T00:51:02.573Z,543.00
2023-03-14T00:52:02.547Z,544.00
2023-03-14T00:53:02.523Z,542.00
2023-03-14T00:56:02.467Z,542.00
2023-03-14T01:00:02.391Z,544.00
2023-03-14T01:01:02.374Z,546.00
2023-03-14T01:03:02.356Z,546.00
2023-03-14T01:06:02.266Z,545.00
2023-03-14T01:07:02.270Z,544.00
2023-03-14T01:08:02.223Z,543.00
2023-03-14T01:09:02.213Z,541.00
2023-03-14T01:10:02.209Z,539.00
2023-03-14T01:13:02.168Z,535.00
2023-03-14T01:15:02.098Z,538.00
2023-03-14T01:16:02.134Z,542.00
2023-03-14T01:17:02.173Z,541.00
2023-03-14T01:18:02.114Z,542.00
2023-03-14T01:19:02.011Z,545.00
2023-03-14T01:20:02.180Z,547.00
2023-03-14T01:21:01.979Z,545.00
2023-03-14T01:22:01.933Z,544.00
2023-03-14T01:23:01.937Z,545.00
2023-03-14T01:24:01.924Z,544.00
2023-03-14T01:25:01.876Z,544.00
2023-03-14T01:26:01.896Z,545.00
2023-03-14T01:27:01.864Z,545.00
2023-03-14T01:28:01.859Z,546.00
2023-03-14T01:29:01.836Z,545.00
2023-03-14T01:30:01.843Z,548.00
2023-03-14T01:32:01.858Z,549.00
2023-03-14T01:33:01.814Z,549.00
2023-03-14T01:34:01.777Z,548.00
2023-03-14T06:21:57.195Z,535.00
2023-03-14T06:22:57.145Z,535.00
2023-03-14T06:23:57.105Z,535.00
2023-03-14T06:24:57.092Z,535.00
2023-03-14T06:25:57.051Z,533.00
2023-03-14T06:26:57.026Z,533.00
2023-03-14T06:27:57.108Z,536.00
2023-03-14T06:28:56.986Z,535.00
2023-03-14T06:29:56.987Z,534.00
2023-03-14T06:30:57.156Z,533.00
2023-03-14T06:31:56.921Z,533.00
2023-03-14T06:32:56.950Z,533.00
2023-03-14T06:33:56.858Z,535.00
2023-03-14T06:34:56.842Z,578.00
2023-03-14T06:35:56.821Z,608.00
2023-03-14T06:36:56.807Z,669.00
2023-03-14T06:37:56.766Z,703.00
2023-03-14T06:38:56.748Z,737.00
2023-03-14T06:39:56.731Z,784.00
2023-03-14T06:40:56.682Z,861.00
2023-03-14T06:41:56.666Z,871.00
2023-03-14T06:42:56.634Z,888.00
2023-03-14T06:43:56.831Z,911.00
2023-03-14T06:44:56.581Z,943.00
2023-03-14T06:45:56.611Z,963.00
2023-03-14T06:46:56.628Z,993.00
2023-03-14T06:47:56.524Z,1016.00
2023-03-14T06:48:56.496Z,1035.00
2023-03-14T06:49:56.480Z,1040.00
2023-03-14T06:50:56.596Z,1018.00
2023-03-14T06:51:56.451Z,1001.00
2023-03-14T06:52:56.445Z,1009.00
2023-03-14T06:53:56.392Z,1025.00
2023-03-14T06:54:56.321Z,1052.00
2023-03-14T06:55:56.299Z,1065.00
2023-03-14T06:56:56.272Z,1069.00
2023-03-14T06:57:56.252Z,1075.00
2023-03-14T06:58:56.240Z,1082.00
2023-03-14T06:59:56.245Z,1089.00
2023-03-14T07:00:56.274Z,1093.00
2023-03-14T07:01:56.222Z,1098.00
2023-03-14T07:02:56.096Z,1101.00
2023-03-14T07:03:56.057Z,1107.00
2023-03-14T07:04:56.788Z,1112.00
2023-03-14T07:05:56.048Z,1113.00
2023-03-14T07:06:56.018Z,1117.00
2023-03-14T07:07:55.973Z,1120.00
2023-03-14T07:08:56.004Z,1122.00
2023-03-14T07:09:56.068Z,1124.00
2023-03-14T07:10:55.829Z,1133.00
2023-03-14T07:11:55.841Z,1134.00
2023-03-14T07:12:55.797Z,1139.00
2023-03-14T07:13:55.767Z,1143.00
2023-03-14T07:14:57.622Z,1150.00
2023-03-14T07:15:55.750Z,1154.00
2023-03-14T07:16:55.696Z,1156.00
2023-03-14T07:17:55.662Z,1159.00
2023-03-14T07:18:55.634Z,1159.00
2023-03-14T07:19:55.647Z,1166.00
2023-03-14T07:20:55.600Z,1174.00
2023-03-14T07:21:55.624Z,1180.00
2023-03-14T07:22:55.650Z,1186.00
2023-03-14T07:23:55.512Z,1195.00
2023-03-14T07:24:55.482Z,1206.00
2023-03-14T07:25:55.446Z,1213.00
2023-03-14T07:26:55.561Z,1226.00
2023-03-14T07:27:55.408Z,1228.00
2023-03-14T07:28:55.416Z,1224.00
2023-03-14T07:29:55.416Z,1227.00
2023-03-14T07:30:55.361Z,1230.00
2023-03-14T07:31:55.321Z,1231.00
2023-03-14T07:32:55.352Z,1238.00
2023-03-14T07:33:55.246Z,1253.00
2023-03-14T07:34:55.224Z,1261.00
2023-03-14T07:35:55.223Z,1277.00
2023-03-14T07:36:55.179Z,1290.00
2023-03-14T07:37:55.160Z,1303.00
2023-03-14T07:38:55.128Z,1318.00
2023-03-14T07:39:55.056Z,1334.00
2023-03-14T07:40:55.064Z,1341.00
2023-03-14T07:41:55.027Z,1360.00
2023-03-14T07:42:55.050Z,1388.00
2023-03-14T07:43:55.003Z,1406.00
2023-03-14T07:44:55.048Z,1423.00
2023-03-14T07:45:59.077Z,1536.00
2023-03-14T07:46:54.915Z,1547.00
2023-03-14T07:47:54.843Z,1555.00
2023-03-14T07:48:54.789Z,1587.00
2023-03-14T07:49:54.766Z,1604.00
2023-03-14T07:50:54.721Z,1621.00
2023-03-14T07:51:54.715Z,1633.00
2023-03-14T07:52:54.669Z,1644.00
2023-03-14T07:53:54.642Z,1650.00
2023-03-14T07:54:54.594Z,1660.00
2023-03-14T07:55:54.563Z,1665.00
2023-03-14T07:56:54.537Z,1675.00
2023-03-14T07:57:54.495Z,1684.00
2023-03-14T07:58:54.457Z,1690.00
2023-03-14T07:59:54.460Z,1695.00
2023-03-14T08:00:54.399Z,1694.00
2023-03-14T08:01:54.385Z,1699.00
2023-03-14T08:02:54.442Z,1705.00
2023-03-14T08:03:54.451Z,1706.00
2023-03-14T08:04:54.333Z,1708.00
2023-03-14T08:05:54.255Z,1718.00
2023-03-14T08:06:54.223Z,1725.00
2023-03-14T08:07:54.216Z,1736.00
2023-03-14T08:08:54.257Z,1743.00
2023-03-14T08:09:54.168Z,1749.00
2023-03-14T08:10:54.167Z,1749.00
2023-03-14T08:11:54.090Z,1753.00
2023-03-14T08:12:54.110Z,1757.00
2023-03-14T08:13:54.132Z,1761.00
2023-03-14T08:14:54.013Z,1766.00
2023-03-14T08:15:54.431Z,1770.00
2023-03-14T08:16:54.230Z,1772.00
2023-03-14T08:17:53.912Z,1785.00
2023-03-14T08:18:53.987Z,1800.00
2023-03-14T08:19:53.982Z,1816.00
2023-03-14T08:20:53.836Z,1811.00
2023-03-14T08:21:53.908Z,1808.00
2023-03-14T08:22:53.801Z,1801.00
2023-03-14T08:23:53.877Z,1801.00
2023-03-14T08:24:53.752Z,1804.00
2023-03-14T08:25:53.710Z,1807.00
2023-03-14T08:26:53.679Z,1805.00
2023-03-14T08:27:53.787Z,1807.00
2023-03-14T08:28:54.088Z,1797.00
2023-03-14T08:29:53.610Z,1797.00
2023-03-14T08:30:53.637Z,1800.00
2023-03-14T08:31:53.614Z,1799.00
2023-03-14T08:32:54.460Z,1801.00
2023-03-14T08:33:53.450Z,1799.00
2023-03-14T08:34:53.557Z,1808.00
2023-03-14T08:35:53.426Z,1817.00
2023-03-14T08:36:53.387Z,1812.00
2023-03-14T08:37:53.320Z,1809.00
2023-03-14T08:38:53.482Z,1796.00
2023-03-14T08:39:53.264Z,1781.00
2023-03-14T08:40:53.235Z,1781.00
2023-03-14T08:41:53.184Z,1775.00
2023-03-14T08:42:53.140Z,1768.00
2023-03-14T08:43:53.142Z,1705.00
2023-03-14T08:44:53.134Z,1677.00
2023-03-14T08:45:53.100Z,1672.00
2023-03-14T08:46:53.124Z,1674.00
2023-03-14T08:47:53.025Z,1674.00
2023-03-14T08:48:52.979Z,1671.00
2023-03-14T08:49:53.124Z,1674.00
2023-03-14T08:50:52.884Z,1653.00
2023-03-14T08:51:52.841Z,1638.00
2023-03-14T08:52:53.853Z,1619.00
2023-03-14T08:53:52.813Z,1599.00
2023-03-14T08:54:52.713Z,1569.00
2023-03-14T08:55:52.690Z,1549.00
2023-03-14T08:56:52.639Z,1538.00
2023-03-14T08:57:52.625Z,1534.00
2023-03-14T08:58:52.845Z,1534.00
2023-03-14T08:59:52.541Z,1542.00
2023-03-14T09:00:52.591Z,1538.00
2023-03-14T09:01:52.730Z,1526.00
2023-03-14T09:02:52.574Z,1505.00
2023-03-14T09:03:52.481Z,1461.00
2023-03-14T09:04:52.314Z,1479.00
2023-03-14T09:05:52.379Z,1467.00
2023-03-14T09:06:52.264Z,1453.00
2023-03-14T09:07:52.799Z,1434.00
2023-03-14T09:08:52.328Z,1415.00
2023-03-14T09:09:52.199Z,1408.00
2023-03-14T09:10:52.299Z,1398.00
2023-03-14T09:11:52.054Z,1386.00
2023-03-14T09:12:51.993Z,1362.00
2023-03-14T09:13:51.966Z,1351.00
2023-03-14T09:14:51.952Z,1345.00
2023-03-14T09:15:51.897Z,1333.00
2023-03-14T09:16:51.923Z,1317.00
2023-03-14T09:17:51.826Z,1309.00
2023-03-14T09:18:51.800Z,1300.00
2023-03-14T09:19:51.768Z,1294.00
2023-03-14T09:20:51.735Z,1290.00
2023-03-14T09:21:51.663Z,1289.00
2023-03-14T09:22:51.643Z,1289.00
2023-03-14T09:23:51.722Z,1287.00
2023-03-14T09:24:51.586Z,1286.00
2023-03-14T09:25:51.539Z,1282.00
2023-03-14T09:26:51.489Z,1276.00
2023-03-14T09:27:51.487Z,1274.00
2023-03-14T09:28:51.418Z,1271.00
2023-03-14T09:29:51.371Z,1263.00
2023-03-14T09:30:51.448Z,1254.00
2023-03-14T09:31:51.440Z,1247.00
2023-03-14T09:32:51.304Z,1244.00
2023-03-14T09:33:51.205Z,1241.00
2023-03-14T09:34:51.227Z,1232.00
2023-03-14T09:35:51.199Z,1221.00
2023-03-14T09:36:51.113Z,1182.00
2023-03-14T09:37:51.122Z,1173.00
2023-03-14T09:38:51.109Z,1166.00
2023-03-14T09:39:51.009Z,1158.00
2023-03-14T09:40:51.014Z,1146.00
2023-03-14T09:41:50.913Z,1031.00
2023-03-14T09:42:50.914Z,774.00
2023-03-14T09:43:50.881Z,725.00
2023-03-14T09:44:50.881Z,646.00
2023-03-14T09:45:50.981Z,661.00
2023-03-14T09:46:50.820Z,844.00
2023-03-14T09:47:59.047Z,854.00
2023-03-14T09:48:51.779Z,870.00
2023-03-14T09:49:50.878Z,855.00
2023-03-14T09:50:50.731Z,866.00
2023-03-14T09:51:50.683Z,862.00
2023-03-14T09:52:50.720Z,817.00
2023-03-14T09:53:50.636Z,809.00
2023-03-14T09:54:50.653Z,759.00
2023-03-14T09:55:50.677Z,764.00
2023-03-14T09:56:50.600Z,741.00
2023-03-14T09:57:50.556Z,716.00
2023-03-14T09:58:50.555Z,709.00
2023-03-14T09:59:50.527Z,715.00
2023-03-14T10:00:50.579Z,717.00
2023-03-14T10:01:50.668Z,733.00
2023-03-14T10:02:50.511Z,737.00
2023-03-14T10:03:50.494Z,745.00
2023-03-14T10:04:50.498Z,744.00
2023-03-14T10:05:50.477Z,737.00
2023-03-14T10:06:50.431Z,730.00
2023-03-14T10:07:50.430Z,730.00
2023-03-14T10:08:50.430Z,729.00
2023-03-14T10:09:50.849Z,726.00
2023-03-14T10:10:50.396Z,723.00
2023-03-14T10:11:50.465Z,730.00
2023-03-14T10:12:50.394Z,735.00
2023-03-14T10:13:50.342Z,730.00
2023-03-14T10:14:50.343Z,732.00
2023-03-14T10:16:50.360Z,735.00
2023-03-14T10:17:50.346Z,730.00
2023-03-14T10:18:50.282Z,725.00
2023-03-14T10:19:50.280Z,714.00
2023-03-14T10:20:50.275Z,702.00
2023-03-14T13:40:43.847Z,791.00
2023-03-14T13:41:43.812Z,792.00
2023-03-14T13:42:43.826Z,792.00
2023-03-14T13:43:43.706Z,790.00
2023-03-14T13:44:43.660Z,790.00
2023-03-14T13:45:43.632Z,789.00
2023-03-14T13:46:43.614Z,788.00
2023-03-14T13:47:43.548Z,787.00
2023-03-14T13:48:43.523Z,786.00
2023-03-14T13:49:43.494Z,786.00
2023-03-14T13:50:44.274Z,782.00
2023-03-14T13:51:43.391Z,777.00
2023-03-14T13:52:43.361Z,777.00
2023-03-14T13:53:43.325Z,776.00
2023-03-14T13:54:43.293Z,774.00
2023-03-14T13:55:43.237Z,772.00
2023-03-14T13:56:43.225Z,771.00
2023-03-14T13:57:43.192Z,771.00
2023-03-14T13:58:43.201Z,772.00
2023-03-14T13:59:43.131Z,773.00
2023-03-14T14:00:43.094Z,772.00
2023-03-14T14:01:43.110Z,774.00
2023-03-14T14:02:42.971Z,773.00
2023-03-14T14:03:42.953Z,773.00
2023-03-14T14:04:43.066Z,772.00
2023-03-14T14:05:42.872Z,773.00
2023-03-14T14:06:42.836Z,776.00
2023-03-14T14:07:42.787Z,775.00
2023-03-14T14:08:42.757Z,774.00
2023-03-14T14:09:42.798Z,771.00
2023-03-14T14:10:43.425Z,769.00
2023-03-14T14:11:50.870Z,769.00
2023-03-14T14:12:43.632Z,767.00
2023-03-14T14:13:42.596Z,766.00
2023-03-14T14:14:42.590Z,767.00
2023-03-14T14:15:42.554Z,765.00
2023-03-14T14:16:43.434Z,762.00
2023-03-14T14:17:42.736Z,759.00
2023-03-14T14:18:42.924Z,757.00
2023-03-14T14:19:42.486Z,755.00
2023-03-14T14:20:42.458Z,751.00
2023-03-14T14:21:42.411Z,750.00
2023-03-14T14:22:42.437Z,746.00
2023-03-14T14:23:42.252Z,744.00
2023-03-14T14:24:42.225Z,745.00
2023-03-14T14:25:42.184Z,746.00
2023-03-14T14:26:42.186Z,744.00
2023-03-14T14:27:42.163Z,744.00
2023-03-14T14:28:42.074Z,741.00
2023-03-14T14:29:42.069Z,740.00
2023-03-14T14:30:42.023Z,739.00
2023-03-14T14:31:42.042Z,736.00
2023-03-14T14:32:41.978Z,733.00
2023-03-14T14:33:41.924Z,733.00
2023-03-14T14:34:41.903Z,733.00
2023-03-14T14:35:41.853Z,733.00
2023-03-14T14:36:41.825Z,730.00
2023-03-14T14:37:41.801Z,730.00
2023-03-14T14:38:41.753Z,729.00
2023-03-14T14:39:41.728Z,728.00
2023-03-14T15:07:41.534Z,717.00
2023-03-14T15:08:41.588Z,719.00
2023-03-14T15:09:41.600Z,717.00
2023-03-14T15:10:41.761Z,717.00
2023-03-14T15:11:41.720Z,716.00
2023-03-14T15:12:41.744Z,718.00
2023-03-14T15:13:41.781Z,719.00
2023-03-14T15:14:41.823Z,719.00
2023-03-14T15:15:41.862Z,717.00
2023-03-14T15:16:42.016Z,714.00
2023-03-14T15:17:41.997Z,715.00
2023-03-14T15:18:41.993Z,715.00
2023-03-14T15:19:42.065Z,714.00
2023-03-14T15:20:42.097Z,713.00
2023-03-14T15:21:42.135Z,712.00
2023-03-14T15:22:42.179Z,714.00
2023-03-14T15:23:42.242Z,716.00
2023-03-14T15:24:42.282Z,716.00
2023-03-14T15:25:55.134Z,716.00
2023-03-14T15:26:43.305Z,715.00
2023-03-14T15:27:42.282Z,713.00
2023-03-14T15:28:42.300Z,709.00
2023-03-14T15:29:42.265Z,708.00
2023-03-14T15:30:42.250Z,705.00
2023-03-14T15:31:42.337Z,704.00
2023-03-14T15:32:42.283Z,703.00
2023-03-14T15:33:42.209Z,702.00
2023-03-14T15:34:42.215Z,701.00
2023-03-14T15:35:42.240Z,702.00
2023-03-14T15:36:42.186Z,704.00
2023-03-14T15:37:42.158Z,703.00
2023-03-14T15:38:42.165Z,703.00
2023-03-14T15:39:42.133Z,703.00
2023-03-14T15:40:42.134Z,704.00
2023-03-14T15:41:42.963Z,703.00
2023-03-14T15:42:42.102Z,700.00
2023-03-14T15:43:42.096Z,699.00
2023-03-14T15:44:42.100Z,697.00
2023-03-14T15:45:42.190Z,696.00
2023-03-14T15:46:42.069Z,698.00
2023-03-14T15:47:42.039Z,698.00
2023-03-14T15:48:42.035Z,699.00
2023-03-14T15:49:42.047Z,697.00
2023-03-14T15:50:42.010Z,696.00
2023-03-14T15:51:41.976Z,696.00
2023-03-14T15:52:41.949Z,695.00
2023-03-14T15:53:41.915Z,694.00
2023-03-14T15:54:41.880Z,695.00
2023-03-14T15:55:41.850Z,694.00
2023-03-14T15:56:41.818Z,695.00
2023-03-14T15:57:41.794Z,693.00
2023-03-14T15:58:41.785Z,695.00
2023-03-14T15:59:41.725Z,694.00
2023-03-14T16:40:40.815Z,675.00
2023-03-14T16:43:40.698Z,672.00
2023-03-14T18:18:41.019Z,626.00
2023-03-14T21:20:34.568Z,576.00
2023-03-14T21:21:34.536Z,578.00
2023-03-14T21:22:34.503Z,579.00
2023-03-14T21:23:34.487Z,579.00
2023-03-14T21:24:34.555Z,581.00
2023-03-14T21:25:34.428Z,582.00
2023-03-14T21:26:34.399Z,582.00
2023-03-14T21:27:34.374Z,582.00
2023-03-14T21:28:34.417Z,580.00
2023-03-14T21:29:34.331Z,578.00
2023-03-14T21:30:34.321Z,577.00
2023-03-14T21:31:34.341Z,577.00
2023-03-14T21:32:34.298Z,575.00
2023-03-14T21:33:34.224Z,573.00
2023-03-14T21:34:34.205Z,574.00
2023-03-14T21:35:34.217Z,574.00
2023-03-14T21:36:34.144Z,577.00
2023-03-14T21:37:34.122Z,578.00
2023-03-14T21:38:34.098Z,577.00
2023-03-14T21:39:34.095Z,575.00
2023-03-14T21:40:34.082Z,577.00
2023-03-14T21:41:34.034Z,576.00
2023-03-14T21:42:34.020Z,577.00
2023-03-14T21:43:33.980Z,577.00
2023-03-14T21:44:33.954Z,575.00
2023-03-14T21:45:33.922Z,576.00
2023-03-14T21:46:33.990Z,573.00
2023-03-14T21:47:33.893Z,572.00
2023-03-14T21:48:33.863Z,572.00
2023-03-14T21:49:33.833Z,573.00
2023-03-14T21:50:33.822Z,571.00
2023-03-14T21:51:33.794Z,571.00
2023-03-14T21:52:33.791Z,573.00
2023-03-14T21:53:33.758Z,573.00
2023-03-14T21:54:33.731Z,572.00
2023-03-14T21:55:33.694Z,572.00
2023-03-14T21:56:33.698Z,573.00
2023-03-14T21:57:33.660Z,574.00
2023-03-14T21:58:33.637Z,575.00
2023-03-14T21:59:33.627Z,574.00
2023-03-14T22:00:33.587Z,572.00
2023-03-14T22:01:33.603Z,572.00
2023-03-14T22:02:33.648Z,571.00
2023-03-14T22:03:33.559Z,570.00
2023-03-14T22:04:33.501Z,572.00
2023-03-14T22:05:33.476Z,573.00
2023-03-14T22:06:33.450Z,573.00
2023-03-14T22:07:33.440Z,573.00
2023-03-14T22:08:33.406Z,573.00
2023-03-14T22:09:33.375Z,572.00
2023-03-14T22:10:33.347Z,575.00
2023-03-14T22:11:33.324Z,577.00
2023-03-14T22:12:33.325Z,579.00
2023-03-14T22:13:33.273Z,578.00
2023-03-14T22:14:33.252Z,578.00
2023-03-14T22:15:33.242Z,575.00
2023-03-14T22:16:33.296Z,576.00
2023-03-14T22:17:33.226Z,574.00
2023-03-14T22:18:33.250Z,574.00
2023-03-14T22:19:33.189Z,573.00
2023-03-14T22:20:33.223Z,570.00
2023-03-14T22:21:33.198Z,572.00
2023-03-14T22:22:33.077Z,569.00
2023-03-14T22:23:33.023Z,567.00
2023-03-14T22:24:33.007Z,568.00
2023-03-14T22:25:32.972Z,565.00
2023-03-14T22:26:32.949Z,565.00
2023-03-14T22:27:32.957Z,566.00
2023-03-14T22:28:32.916Z,566.00
2023-03-14T22:29:32.925Z,565.00
2023-03-14T22:30:32.961Z,567.00
2023-03-14T22:31:32.998Z,567.00
2023-03-14T22:32:32.926Z,565.00
2023-03-14T22:33:32.859Z,563.00
2023-03-14T22:34:32.864Z,565.00
2023-03-14T22:35:32.787Z,563.00
2023-03-14T22:36:32.749Z,566.00
2023-03-14T22:37:32.752Z,565.00
2023-03-14T22:38:32.698Z,565.00
2023-03-14T22:39:32.667Z,562.00
2023-03-14T22:40:32.640Z,563.00
2023-03-14T22:41:32.618Z,563.00
2023-03-14T22:42:32.597Z,563.00
2023-03-14T22:43:32.571Z,564.00
2023-03-14T22:44:32.549Z,563.00
2023-03-14T22:45:32.531Z,564.00
2023-03-14T22:46:32.505Z,566.00
2023-03-14T22:47:32.516Z,565.00
2023-03-14T22:48:32.450Z,565.00
2023-03-14T22:49:32.446Z,566.00
2023-03-14T22:50:32.408Z,565.00
2023-03-14T22:51:32.386Z,564.00
2023-03-14T22:52:32.393Z,564.00
2023-03-14T22:53:32.322Z,564.00
2023-03-14T22:54:32.313Z,562.00
2023-03-14T22:55:32.276Z,562.00
2023-03-14T22:56:32.249Z,563.00
2023-03-14T22:57:32.276Z,563.00
2023-03-14T22:58:32.199Z,564.00
2023-03-14T22:59:32.180Z,562.00
2023-03-14T23:00:32.160Z,560.00
2023-03-14T23:01:32.134Z,556.00
2023-03-14T23:02:32.093Z,558.00
2023-03-14T23:03:32.064Z,558.00
2023-03-14T23:04:32.035Z,558.00
2023-03-14T23:05:32.000Z,559.00
2023-03-14T23:06:31.989Z,560.00
2023-03-14T23:07:31.960Z,559.00
2023-03-14T23:08:31.929Z,559.00
2023-03-14T23:09:31.900Z,558.00
2023-03-14T23:10:31.894Z,559.00
2023-03-14T23:11:31.840Z,559.00
2023-03-14T23:12:31.853Z,558.00
2023-03-14T23:13:31.914Z,558.00
2023-03-14T23:14:31.787Z,558.00
2023-03-14T23:15:31.782Z,557.00
2023-03-14T23:16:40.029Z,558.00
2023-03-14T23:17:32.703Z,557.00
